sensor_id;sensor_type;location;lat;lon;timestamp;P1;durP1;ratioP1;P2;durP2;ratioP2
26574;SDS011;67165;50.256;10.978;2024-01-30T00:01:58;29.27;;;15.63;;
26574;SDS011;67165;50.256;10.978;2024-01-30T00:04:23;27.42;;;13.93;;
26574;SDS011;67165;50.256;10.978;2024-01-30T00:06:50;28.35;;;15.05;;
26574;SDS011;67165;50.256;10.978;2024-01-30T00:09:17;32.42;;;15.45;;
26574;SDS011;67165;50.256;10.978;2024-01-30T00:11:44;28.75;;;14.50;;
26574;SDS011;67165;50.256;10.978;2024-01-30T00:14:10;29.83;;;15.15;;
26574;SDS011;67165;50.256;10.978;2024-01-30T00:16:36;32.22;;;14.98;;
26574;SDS011;67165;50.256;10.978;2024-01-30T00:19:02;31.05;;;13.98;;
26574;SDS011;67165;50.256;10.978;2024-01-30T00:21:28;33.65;;;14.48;;
26574;SDS011;67165;50.256;10.978;2024-01-30T00:23:54;26.92;;;14.00;;
26574;SDS011;67165;50.256;10.978;2024-01-30T00:26:20;28.83;;;13.35;;
26574;SDS011;67165;50.256;10.978;2024-01-30T00:28:46;29.60;;;14.55;;
26574;SDS011;67165;50.256;10.978;2024-01-30T00:31:11;24.30;;;13.32;;
26574;SDS011;67165;50.256;10.978;2024-01-30T00:33:40;30.83;;;14.48;;
26574;SDS011;67165;50.256;10.978;2024-01-30T00:36:07;25.77;;;13.43;;
26574;SDS011;67165;50.256;10.978;2024-01-30T00:38:34;24.45;;;13.50;;
26574;SDS011;67165;50.256;10.978;2024-01-30T00:41:00;25.15;;;13.30;;
26574;SDS011;67165;50.256;10.978;2024-01-30T00:43:29;25.75;;;13.00;;
26574;SDS011;67165;50.256;10.978;2024-01-30T00:45:56;29.17;;;13.73;;
26574;SDS011;67165;50.256;10.978;2024-01-30T00:48:23;23.30;;;12.60;;
26574;SDS011;67165;50.256;10.978;2024-01-30T00:50:48;25.40;;;12.98;;
26574;SDS011;67165;50.256;10.978;2024-01-30T00:53:14;25.02;;;12.00;;
26574;SDS011;67165;50.256;10.978;2024-01-30T00:55:40;27.88;;;13.15;;
26574;SDS011;67165;50.256;10.978;2024-01-30T00:58:06;23.50;;;12.55;;
26574;SDS011;67165;50.256;10.978;2024-01-30T01:00:32;24.40;;;12.93;;
26574;SDS011;67165;50.256;10.978;2024-01-30T01:02:58;22.27;;;12.00;;
26574;SDS011;67165;50.256;10.978;2024-01-30T01:05:24;24.05;;;13.15;;
26574;SDS011;67165;50.256;10.978;2024-01-30T01:07:50;25.83;;;13.07;;
26574;SDS011;67165;50.256;10.978;2024-01-30T01:10:16;21.70;;;13.00;;
26574;SDS011;67165;50.256;10.978;2024-01-30T01:12:43;27.38;;;13.32;;
26574;SDS011;67165;50.256;10.978;2024-01-30T01:15:09;28.42;;;13.40;;
26574;SDS011;67165;50.256;10.978;2024-01-30T01:17:36;25.85;;;12.32;;
26574;SDS011;67165;50.256;10.978;2024-01-30T01:20:05;23.60;;;12.38;;
26574;SDS011;67165;50.256;10.978;2024-01-30T01:22:32;28.17;;;13.00;;
26574;SDS011;67165;50.256;10.978;2024-01-30T01:24:59;27.65;;;13.25;;
26574;SDS011;67165;50.256;10.978;2024-01-30T01:27:25;27.88;;;13.20;;
26574;SDS011;67165;50.256;10.978;2024-01-30T01:29:51;28.40;;;12.88;;
26574;SDS011;67165;50.256;10.978;2024-01-30T01:32:17;24.20;;;12.73;;
26574;SDS011;67165;50.256;10.978;2024-01-30T01:34:43;26.38;;;12.57;;
26574;SDS011;67165;50.256;10.978;2024-01-30T01:37:09;24.10;;;12.35;;
26574;SDS011;67165;50.256;10.978;2024-01-30T01:39:35;28.48;;;13.02;;
26574;SDS011;67165;50.256;10.978;2024-01-30T01:42:01;23.10;;;12.63;;
26574;SDS011;67165;50.256;10.978;2024-01-30T01:44:27;23.80;;;12.18;;
26574;SDS011;67165;50.256;10.978;2024-01-30T01:46:52;23.67;;;12.25;;
26574;SDS011;67165;50.256;10.978;2024-01-30T01:49:19;29.20;;;12.55;;
26574;SDS011;67165;50.256;10.978;2024-01-30T01:51:49;26.00;;;11.98;;
26574;SDS011;67165;50.256;10.978;2024-01-30T01:54:16;22.83;;;11.93;;
26574;SDS011;67165;50.256;10.978;2024-01-30T01:56:42;23.33;;;11.63;;
26574;SDS011;67165;50.256;10.978;2024-01-30T01:59:09;23.33;;;11.48;;
26574;SDS011;67165;50.256;10.978;2024-01-30T02:01:37;24.40;;;11.38;;
26574;SDS011;67165;50.256;10.978;2024-01-30T02:04:06;25.40;;;10.93;;
26574;SDS011;67165;50.256;10.978;2024-01-30T02:06:33;16.90;;;9.55;;
26574;SDS011;67165;50.256;10.978;2024-01-30T02:09:02;18.13;;;8.50;;
26574;SDS011;67165;50.256;10.978;2024-01-30T02:11:29;17.48;;;8.82;;
26574;SDS011;67165;50.256;10.978;2024-01-30T02:13:55;18.77;;;8.13;;
26574;SDS011;67165;50.256;10.978;2024-01-30T02:16:21;19.27;;;8.52;;
26574;SDS011;67165;50.256;10.978;2024-01-30T02:18:47;19.90;;;9.30;;
26574;SDS011;67165;50.256;10.978;2024-01-30T02:21:16;18.88;;;9.07;;
26574;SDS011;67165;50.256;10.978;2024-01-30T02:23:43;17.85;;;8.77;;
26574;SDS011;67165;50.256;10.978;2024-01-30T02:26:11;18.80;;;9.27;;
26574;SDS011;67165;50.256;10.978;2024-01-30T02:28:37;22.15;;;9.38;;
26574;SDS011;67165;50.256;10.978;2024-01-30T02:31:03;16.13;;;9.50;;
26574;SDS011;67165;50.256;10.978;2024-01-30T02:33:29;18.58;;;9.77;;
26574;SDS011;67165;50.256;10.978;2024-01-30T02:35:55;19.38;;;10.10;;
26574;SDS011;67165;50.256;10.978;2024-01-30T02:38:21;21.63;;;9.75;;
26574;SDS011;67165;50.256;10.978;2024-01-30T02:40:48;18.83;;;9.48;;
26574;SDS011;67165;50.256;10.978;2024-01-30T02:43:14;18.30;;;9.50;;
26574;SDS011;67165;50.256;10.978;2024-01-30T02:45:40;18.23;;;9.27;;
26574;SDS011;67165;50.256;10.978;2024-01-30T02:48:06;20.92;;;9.82;;
26574;SDS011;67165;50.256;10.978;2024-01-30T02:50:32;19.30;;;9.98;;
26574;SDS011;67165;50.256;10.978;2024-01-30T02:52:58;18.73;;;9.00;;
26574;SDS011;67165;50.256;10.978;2024-01-30T02:55:23;18.23;;;9.32;;
26574;SDS011;67165;50.256;10.978;2024-01-30T02:57:49;16.45;;;9.00;;
26574;SDS011;67165;50.256;10.978;2024-01-30T03:00:15;17.40;;;8.52;;
26574;SDS011;67165;50.256;10.978;2024-01-30T03:02:41;18.75;;;8.88;;
26574;SDS011;67165;50.256;10.978;2024-01-30T03:05:07;15.85;;;8.50;;
26574;SDS011;67165;50.256;10.978;2024-01-30T03:07:33;18.35;;;9.40;;
26574;SDS011;67165;50.256;10.978;2024-01-30T03:09:59;15.48;;;8.93;;
26574;SDS011;67165;50.256;10.978;2024-01-30T03:12:25;17.35;;;8.57;;
26574;SDS011;67165;50.256;10.978;2024-01-30T03:14:51;17.17;;;9.25;;
26574;SDS011;67165;50.256;10.978;2024-01-30T03:17:17;15.88;;;8.30;;
26574;SDS011;67165;50.256;10.978;2024-01-30T03:19:43;17.67;;;9.25;;
26574;SDS011;67165;50.256;10.978;2024-01-30T03:22:09;14.73;;;8.60;;
26574;SDS011;67165;50.256;10.978;2024-01-30T03:24:34;21.23;;;9.07;;
26574;SDS011;67165;50.256;10.978;2024-01-30T03:27:00;14.57;;;8.73;;
26574;SDS011;67165;50.256;10.978;2024-01-30T03:29:26;17.65;;;8.80;;
26574;SDS011;67165;50.256;10.978;2024-01-30T03:31:52;19.35;;;9.50;;
26574;SDS011;67165;50.256;10.978;2024-01-30T03:34:18;16.75;;;8.88;;
26574;SDS011;67165;50.256;10.978;2024-01-30T03:36:43;20.17;;;9.65;;
26574;SDS011;67165;50.256;10.978;2024-01-30T03:39:09;18.05;;;8.88;;
26574;SDS011;67165;50.256;10.978;2024-01-30T03:41:35;18.30;;;8.82;;
26574;SDS011;67165;50.256;10.978;2024-01-30T03:44:01;17.92;;;8.73;;
26574;SDS011;67165;50.256;10.978;2024-01-30T03:46:27;17.50;;;9.20;;
26574;SDS011;67165;50.256;10.978;2024-01-30T03:48:53;20.38;;;9.15;;
26574;SDS011;67165;50.256;10.978;2024-01-30T03:51:18;19.42;;;9.27;;
26574;SDS011;67165;50.256;10.978;2024-01-30T03:53:44;18.60;;;9.23;;
26574;SDS011;67165;50.256;10.978;2024-01-30T03:56:13;19.50;;;9.60;;
26574;SDS011;67165;50.256;10.978;2024-01-30T03:58:39;19.80;;;9.68;;
26574;SDS011;67165;50.256;10.978;2024-01-30T04:01:05;16.60;;;9.48;;
26574;SDS011;67165;50.256;10.978;2024-01-30T04:03:30;14.60;;;8.90;;
26574;SDS011;67165;50.256;10.978;2024-01-30T04:05:56;16.88;;;9.02;;
26574;SDS011;67165;50.256;10.978;2024-01-30T04:08:22;15.88;;;8.73;;
26574;SDS011;67165;50.256;10.978;2024-01-30T04:10:48;16.73;;;9.05;;
26574;SDS011;67165;50.256;10.978;2024-01-30T04:13:13;17.35;;;9.25;;
26574;SDS011;67165;50.256;10.978;2024-01-30T04:15:39;18.52;;;9.60;;
26574;SDS011;67165;50.256;10.978;2024-01-30T04:18:05;18.08;;;9.77;;
26574;SDS011;67165;50.256;10.978;2024-01-30T04:20:31;19.80;;;9.38;;
26574;SDS011;67165;50.256;10.978;2024-01-30T04:22:56;17.80;;;9.60;;
26574;SDS011;67165;50.256;10.978;2024-01-30T04:25:22;18.10;;;9.68;;
26574;SDS011;67165;50.256;10.978;2024-01-30T04:27:48;21.90;;;10.35;;
26574;SDS011;67165;50.256;10.978;2024-01-30T04:30:14;23.38;;;10.38;;
26574;SDS011;67165;50.256;10.978;2024-01-30T04:32:40;17.00;;;9.75;;
26574;SDS011;67165;50.256;10.978;2024-01-30T04:35:06;18.02;;;9.98;;
26574;SDS011;67165;50.256;10.978;2024-01-30T04:37:34;18.08;;;8.98;;
26574;SDS011;67165;50.256;10.978;2024-01-30T04:40:00;20.08;;;9.90;;
26574;SDS011;67165;50.256;10.978;2024-01-30T04:42:25;18.75;;;10.23;;
26574;SDS011;67165;50.256;10.978;2024-01-30T04:44:51;20.30;;;10.60;;
26574;SDS011;67165;50.256;10.978;2024-01-30T04:47:17;19.45;;;10.73;;
26574;SDS011;67165;50.256;10.978;2024-01-30T04:49:42;18.33;;;10.32;;
26574;SDS011;67165;50.256;10.978;2024-01-30T04:52:08;23.55;;;11.05;;
26574;SDS011;67165;50.256;10.978;2024-01-30T04:54:34;20.90;;;10.70;;
26574;SDS011;67165;50.256;10.978;2024-01-30T04:57:03;21.13;;;11.95;;
26574;SDS011;67165;50.256;10.978;2024-01-30T04:59:33;19.90;;;10.80;;
26574;SDS011;67165;50.256;10.978;2024-01-30T05:01:59;20.73;;;10.90;;
26574;SDS011;67165;50.256;10.978;2024-01-30T05:04:25;20.75;;;10.95;;
26574;SDS011;67165;50.256;10.978;2024-01-30T05:06:50;23.60;;;10.93;;
26574;SDS011;67165;50.256;10.978;2024-01-30T05:09:16;20.65;;;11.40;;
26574;SDS011;67165;50.256;10.978;2024-01-30T05:11:42;20.35;;;10.80;;
26574;SDS011;67165;50.256;10.978;2024-01-30T05:14:07;18.27;;;10.85;;
26574;SDS011;67165;50.256;10.978;2024-01-30T05:16:37;24.17;;;11.20;;
26574;SDS011;67165;50.256;10.978;2024-01-30T05:19:02;23.50;;;11.45;;
26574;SDS011;67165;50.256;10.978;2024-01-30T05:21:28;24.00;;;11.68;;
26574;SDS011;67165;50.256;10.978;2024-01-30T05:23:54;21.38;;;10.77;;
26574;SDS011;67165;50.256;10.978;2024-01-30T05:26:19;20.00;;;10.20;;
26574;SDS011;67165;50.256;10.978;2024-01-30T05:28:45;25.88;;;11.70;;
26574;SDS011;67165;50.256;10.978;2024-01-30T05:31:11;21.17;;;11.10;;
26574;SDS011;67165;50.256;10.978;2024-01-30T05:33:37;22.50;;;11.23;;
26574;SDS011;67165;50.256;10.978;2024-01-30T05:36:03;20.05;;;11.68;;
26574;SDS011;67165;50.256;10.978;2024-01-30T05:38:29;24.20;;;12.80;;
26574;SDS011;67165;50.256;10.978;2024-01-30T05:40:55;26.60;;;13.93;;
26574;SDS011;67165;50.256;10.978;2024-01-30T05:43:23;26.98;;;13.85;;
26574;SDS011;67165;50.256;10.978;2024-01-30T05:45:49;26.70;;;13.32;;
26574;SDS011;67165;50.256;10.978;2024-01-30T05:48:15;24.40;;;13.32;;
26574;SDS011;67165;50.256;10.978;2024-01-30T05:50:41;22.83;;;12.10;;
26574;SDS011;67165;50.256;10.978;2024-01-30T05:53:06;26.25;;;13.00;;
26574;SDS011;67165;50.256;10.978;2024-01-30T05:55:32;23.20;;;12.38;;
26574;SDS011;67165;50.256;10.978;2024-01-30T05:57:58;25.10;;;12.98;;
26574;SDS011;67165;50.256;10.978;2024-01-30T06:00:24;28.13;;;13.43;;
26574;SDS011;67165;50.256;10.978;2024-01-30T06:02:49;24.60;;;12.50;;
26574;SDS011;67165;50.256;10.978;2024-01-30T06:05:15;22.55;;;12.23;;
26574;SDS011;67165;50.256;10.978;2024-01-30T06:07:41;23.02;;;12.55;;
26574;SDS011;67165;50.256;10.978;2024-01-30T06:10:07;23.83;;;12.43;;
26574;SDS011;67165;50.256;10.978;2024-01-30T06:12:34;29.23;;;12.90;;
26574;SDS011;67165;50.256;10.978;2024-01-30T06:15:00;25.52;;;12.70;;
26574;SDS011;67165;50.256;10.978;2024-01-30T06:17:26;29.02;;;12.85;;
26574;SDS011;67165;50.256;10.978;2024-01-30T06:19:53;23.45;;;12.32;;
26574;SDS011;67165;50.256;10.978;2024-01-30T06:22:18;24.25;;;12.52;;
26574;SDS011;67165;50.256;10.978;2024-01-30T06:24:44;21.88;;;11.75;;
26574;SDS011;67165;50.256;10.978;2024-01-30T06:27:12;23.65;;;12.38;;
26574;SDS011;67165;50.256;10.978;2024-01-30T06:29:38;24.08;;;13.73;;
26574;SDS011;67165;50.256;10.978;2024-01-30T06:32:05;22.95;;;12.88;;
26574;SDS011;67165;50.256;10.978;2024-01-30T06:34:31;25.17;;;12.60;;
26574;SDS011;67165;50.256;10.978;2024-01-30T06:36:57;28.02;;;13.20;;
26574;SDS011;67165;50.256;10.978;2024-01-30T06:39:22;27.88;;;13.23;;
26574;SDS011;67165;50.256;10.978;2024-01-30T06:41:48;24.25;;;13.02;;
26574;SDS011;67165;50.256;10.978;2024-01-30T06:44:14;26.77;;;12.80;;
26574;SDS011;67165;50.256;10.978;2024-01-30T06:46:40;26.48;;;14.30;;
26574;SDS011;67165;50.256;10.978;2024-01-30T06:49:05;29.50;;;13.32;;
26574;SDS011;67165;50.256;10.978;2024-01-30T06:51:31;31.23;;;14.40;;
26574;SDS011;67165;50.256;10.978;2024-01-30T06:53:57;26.88;;;13.43;;
26574;SDS011;67165;50.256;10.978;2024-01-30T06:56:23;27.27;;;14.32;;
26574;SDS011;67165;50.256;10.978;2024-01-30T06:58:49;25.80;;;13.15;;
26574;SDS011;67165;50.256;10.978;2024-01-30T07:01:15;24.38;;;13.60;;
26574;SDS011;67165;50.256;10.978;2024-01-30T07:03:41;27.75;;;13.43;;
26574;SDS011;67165;50.256;10.978;2024-01-30T07:06:07;26.48;;;13.70;;
26574;SDS011;67165;50.256;10.978;2024-01-30T07:08:34;29.33;;;13.75;;
26574;SDS011;67165;50.256;10.978;2024-01-30T07:10:59;27.42;;;13.90;;
26574;SDS011;67165;50.256;10.978;2024-01-30T07:13:27;26.98;;;13.15;;
26574;SDS011;67165;50.256;10.978;2024-01-30T07:15:53;24.92;;;12.85;;
26574;SDS011;67165;50.256;10.978;2024-01-30T07:18:19;27.52;;;13.57;;
26574;SDS011;67165;50.256;10.978;2024-01-30T07:20:45;23.35;;;13.48;;
26574;SDS011;67165;50.256;10.978;2024-01-30T07:23:12;26.52;;;13.15;;
26574;SDS011;67165;50.256;10.978;2024-01-30T07:25:41;30.95;;;13.38;;
26574;SDS011;67165;50.256;10.978;2024-01-30T07:28:10;24.30;;;13.40;;
26574;SDS011;67165;50.256;10.978;2024-01-30T07:30:37;29.83;;;14.30;;
26574;SDS011;67165;50.256;10.978;2024-01-30T07:33:03;29.33;;;15.07;;
26574;SDS011;67165;50.256;10.978;2024-01-30T07:35:29;29.77;;;14.80;;
26574;SDS011;67165;50.256;10.978;2024-01-30T07:37:55;30.63;;;15.98;;
26574;SDS011;67165;50.256;10.978;2024-01-30T07:40:22;28.77;;;13.82;;
26574;SDS011;67165;50.256;10.978;2024-01-30T07:42:48;26.98;;;13.88;;
26574;SDS011;67165;50.256;10.978;2024-01-30T07:45:14;29.58;;;15.07;;
26574;SDS011;67165;50.256;10.978;2024-01-30T07:47:40;30.10;;;14.50;;
26574;SDS011;67165;50.256;10.978;2024-01-30T07:50:07;26.02;;;14.07;;
26574;SDS011;67165;50.256;10.978;2024-01-30T07:52:34;24.73;;;12.90;;
26574;SDS011;67165;50.256;10.978;2024-01-30T07:55:00;28.98;;;13.38;;
26574;SDS011;67165;50.256;10.978;2024-01-30T07:57:25;27.13;;;13.10;;
26574;SDS011;67165;50.256;10.978;2024-01-30T07:59:51;23.05;;;13.10;;
26574;SDS011;67165;50.256;10.978;2024-01-30T08:02:17;28.17;;;12.05;;
26574;SDS011;67165;50.256;10.978;2024-01-30T08:04:43;24.33;;;12.50;;
26574;SDS011;67165;50.256;10.978;2024-01-30T08:07:08;24.08;;;13.05;;
26574;SDS011;67165;50.256;10.978;2024-01-30T08:09:34;25.85;;;13.52;;
26574;SDS011;67165;50.256;10.978;2024-01-30T08:12:00;23.52;;;12.30;;
26574;SDS011;67165;50.256;10.978;2024-01-30T08:14:26;23.40;;;12.52;;
26574;SDS011;67165;50.256;10.978;2024-01-30T08:16:53;20.75;;;12.07;;
26574;SDS011;67165;50.256;10.978;2024-01-30T08:19:18;24.95;;;12.48;;
26574;SDS011;67165;50.256;10.978;2024-01-30T08:21:44;24.67;;;13.25;;
26574;SDS011;67165;50.256;10.978;2024-01-30T08:24:10;27.10;;;13.23;;
26574;SDS011;67165;50.256;10.978;2024-01-30T08:26:36;30.20;;;13.35;;
26574;SDS011;67165;50.256;10.978;2024-01-30T08:29:02;25.98;;;12.80;;
26574;SDS011;67165;50.256;10.978;2024-01-30T08:31:28;26.20;;;13.90;;
26574;SDS011;67165;50.256;10.978;2024-01-30T08:33:53;25.63;;;13.05;;
26574;SDS011;67165;50.256;10.978;2024-01-30T08:36:19;29.45;;;13.95;;
26574;SDS011;67165;50.256;10.978;2024-01-30T08:38:45;25.02;;;13.73;;
26574;SDS011;67165;50.256;10.978;2024-01-30T08:41:11;29.20;;;13.98;;
26574;SDS011;67165;50.256;10.978;2024-01-30T08:43:37;28.10;;;13.90;;
26574;SDS011;67165;50.256;10.978;2024-01-30T08:46:02;28.17;;;13.93;;
26574;SDS011;67165;50.256;10.978;2024-01-30T08:48:28;26.10;;;13.23;;
26574;SDS011;67165;50.256;10.978;2024-01-30T08:50:54;26.33;;;14.15;;
26574;SDS011;67165;50.256;10.978;2024-01-30T08:53:20;28.88;;;14.05;;
26574;SDS011;67165;50.256;10.978;2024-01-30T08:55:46;25.58;;;13.93;;
26574;SDS011;67165;50.256;10.978;2024-01-30T08:58:12;27.50;;;13.20;;
26574;SDS011;67165;50.256;10.978;2024-01-30T09:00:37;26.83;;;14.02;;
26574;SDS011;67165;50.256;10.978;2024-01-30T09:03:03;24.23;;;13.15;;
26574;SDS011;67165;50.256;10.978;2024-01-30T09:05:29;25.95;;;12.82;;
26574;SDS011;67165;50.256;10.978;2024-01-30T09:07:55;27.00;;;14.15;;
26574;SDS011;67165;50.256;10.978;2024-01-30T09:10:21;26.80;;;13.63;;
26574;SDS011;67165;50.256;10.978;2024-01-30T09:12:47;28.10;;;14.10;;
26574;SDS011;67165;50.256;10.978;2024-01-30T09:15:13;24.20;;;14.10;;
26574;SDS011;67165;50.256;10.978;2024-01-30T09:17:39;25.85;;;13.52;;
26574;SDS011;67165;50.256;10.978;2024-01-30T09:20:05;27.05;;;12.63;;
26574;SDS011;67165;50.256;10.978;2024-01-30T09:22:31;27.55;;;13.63;;
26574;SDS011;67165;50.256;10.978;2024-01-30T09:24:57;27.70;;;13.13;;
26574;SDS011;67165;50.256;10.978;2024-01-30T09:27:23;29.67;;;14.02;;
26574;SDS011;67165;50.256;10.978;2024-01-30T09:29:49;25.33;;;13.85;;
26574;SDS011;67165;50.256;10.978;2024-01-30T09:32:14;28.65;;;13.90;;
26574;SDS011;67165;50.256;10.978;2024-01-30T09:34:40;25.42;;;14.02;;
26574;SDS011;67165;50.256;10.978;2024-01-30T09:37:07;25.55;;;13.90;;
26574;SDS011;67165;50.256;10.978;2024-01-30T09:39:32;27.58;;;13.85;;
26574;SDS011;67165;50.256;10.978;2024-01-30T09:44:31;28.65;;;14.27;;
26574;SDS011;67165;50.256;10.978;2024-01-30T09:46:59;25.90;;;13.98;;
26574;SDS011;67165;50.256;10.978;2024-01-30T09:49:29;27.45;;;14.07;;
26574;SDS011;67165;50.256;10.978;2024-01-30T09:51:59;25.40;;;13.57;;
26574;SDS011;67165;50.256;10.978;2024-01-30T09:54:25;27.73;;;14.90;;
26574;SDS011;67165;50.256;10.978;2024-01-30T09:56:51;25.48;;;13.60;;
26574;SDS011;67165;50.256;10.978;2024-01-30T09:59:16;27.88;;;14.18;;
26574;SDS011;67165;50.256;10.978;2024-01-30T10:01:42;27.17;;;13.70;;
26574;SDS011;67165;50.256;10.978;2024-01-30T10:04:08;28.73;;;13.82;;
26574;SDS011;67165;50.256;10.978;2024-01-30T10:06:34;26.60;;;13.93;;
26574;SDS011;67165;50.256;10.978;2024-01-30T10:09:00;25.92;;;13.55;;
26574;SDS011;67165;50.256;10.978;2024-01-30T10:11:26;26.95;;;14.48;;
26574;SDS011;67165;50.256;10.978;2024-01-30T10:13:52;29.45;;;14.75;;
26574;SDS011;67165;50.256;10.978;2024-01-30T10:16:17;27.42;;;14.77;;
26574;SDS011;67165;50.256;10.978;2024-01-30T10:18:43;32.42;;;16.15;;
26574;SDS011;67165;50.256;10.978;2024-01-30T10:21:09;27.52;;;15.23;;
26574;SDS011;67165;50.256;10.978;2024-01-30T10:23:36;28.08;;;14.98;;
26574;SDS011;67165;50.256;10.978;2024-01-30T10:26:04;30.48;;;15.98;;
26574;SDS011;67165;50.256;10.978;2024-01-30T10:28:33;32.28;;;15.13;;
26574;SDS011;67165;50.256;10.978;2024-01-30T10:31:04;26.05;;;14.98;;
26574;SDS011;67165;50.256;10.978;2024-01-30T10:33:32;25.77;;;14.68;;
26574;SDS011;67165;50.256;10.978;2024-01-30T10:36:04;26.35;;;14.48;;
26574;SDS011;67165;50.256;10.978;2024-01-30T10:38:31;27.20;;;15.05;;
26574;SDS011;67165;50.256;10.978;2024-01-30T10:40:58;29.55;;;14.82;;
26574;SDS011;67165;50.256;10.978;2024-01-30T10:43:31;27.63;;;14.38;;
26574;SDS011;67165;50.256;10.978;2024-01-30T10:46:03;27.08;;;14.98;;
26574;SDS011;67165;50.256;10.978;2024-01-30T10:48:36;25.08;;;13.98;;
26574;SDS011;67165;50.256;10.978;2024-01-30T10:51:08;23.67;;;13.10;;
26574;SDS011;67165;50.256;10.978;2024-01-30T10:53:34;25.27;;;13.55;;
26574;SDS011;67165;50.256;10.978;2024-01-30T10:56:02;24.85;;;14.70;;
26574;SDS011;67165;50.256;10.978;2024-01-30T10:58:29;26.42;;;14.60;;
26574;SDS011;67165;50.256;10.978;2024-01-30T11:00:55;25.67;;;13.90;;
26574;SDS011;67165;50.256;10.978;2024-01-30T11:03:22;26.65;;;14.07;;
26574;SDS011;67165;50.256;10.978;2024-01-30T11:05:49;22.98;;;13.73;;
26574;SDS011;67165;50.256;10.978;2024-01-30T11:08:22;27.65;;;14.18;;
26574;SDS011;67165;50.256;10.978;2024-01-30T11:10:56;25.90;;;14.23;;
26574;SDS011;67165;50.256;10.978;2024-01-30T11:13:30;22.25;;;13.73;;
26574;SDS011;67165;50.256;10.978;2024-01-30T11:16:02;26.45;;;13.07;;
26574;SDS011;67165;50.256;10.978;2024-01-30T11:18:30;25.25;;;14.18;;
26574;SDS011;67165;50.256;10.978;2024-01-30T11:20:57;26.38;;;13.82;;
26574;SDS011;67165;50.256;10.978;2024-01-30T11:23:27;26.10;;;15.07;;
26574;SDS011;67165;50.256;10.978;2024-01-30T11:25:53;22.83;;;13.40;;
26574;SDS011;67165;50.256;10.978;2024-01-30T11:28:20;24.33;;;14.00;;
26574;SDS011;67165;50.256;10.978;2024-01-30T11:30:47;25.00;;;15.07;;
26574;SDS011;67165;50.256;10.978;2024-01-30T11:33:16;23.48;;;13.73;;
26574;SDS011;67165;50.256;10.978;2024-01-30T11:35:56;26.38;;;14.13;;
26574;SDS011;67165;50.256;10.978;2024-01-30T11:38:25;24.83;;;13.70;;
26574;SDS011;67165;50.256;10.978;2024-01-30T11:40:52;24.17;;;13.80;;
26574;SDS011;67165;50.256;10.978;2024-01-30T11:43:19;25.52;;;13.90;;
26574;SDS011;67165;50.256;10.978;2024-01-30T11:45:45;23.95;;;12.90;;
26574;SDS011;67165;50.256;10.978;2024-01-30T11:48:12;23.25;;;12.55;;
26574;SDS011;67165;50.256;10.978;2024-01-30T11:50:38;25.70;;;14.95;;
26574;SDS011;67165;50.256;10.978;2024-01-30T11:53:05;26.10;;;15.00;;
26574;SDS011;67165;50.256;10.978;2024-01-30T11:55:32;22.20;;;13.95;;
26574;SDS011;67165;50.256;10.978;2024-01-30T11:57:58;22.20;;;13.25;;
26574;SDS011;67165;50.256;10.978;2024-01-30T12:00:24;23.70;;;14.07;;
26574;SDS011;67165;50.256;10.978;2024-01-30T12:02:51;23.63;;;14.32;;
26574;SDS011;67165;50.256;10.978;2024-01-30T12:05:20;24.27;;;13.85;;
26574;SDS011;67165;50.256;10.978;2024-01-30T12:07:47;26.05;;;14.00;;
26574;SDS011;67165;50.256;10.978;2024-01-30T12:10:13;26.92;;;15.30;;
26574;SDS011;67165;50.256;10.978;2024-01-30T12:12:39;26.52;;;14.70;;
26574;SDS011;67165;50.256;10.978;2024-01-30T12:15:10;26.48;;;14.65;;
26574;SDS011;67165;50.256;10.978;2024-01-30T12:17:36;24.52;;;14.40;;
26574;SDS011;67165;50.256;10.978;2024-01-30T12:20:05;24.55;;;13.52;;
26574;SDS011;67165;50.256;10.978;2024-01-30T12:22:40;24.95;;;14.05;;
26574;SDS011;67165;50.256;10.978;2024-01-30T12:25:09;29.35;;;14.70;;
26574;SDS011;67165;50.256;10.978;2024-01-30T12:27:42;24.37;;;14.23;;
26574;SDS011;67165;50.256;10.978;2024-01-30T12:30:09;24.15;;;14.35;;
26574;SDS011;67165;50.256;10.978;2024-01-30T12:32:38;21.08;;;13.30;;
26574;SDS011;67165;50.256;10.978;2024-01-30T12:35:15;23.65;;;14.27;;
26574;SDS011;67165;50.256;10.978;2024-01-30T12:37:43;24.58;;;14.40;;
26574;SDS011;67165;50.256;10.978;2024-01-30T12:40:18;23.20;;;13.98;;
26574;SDS011;67165;50.256;10.978;2024-01-30T12:42:46;22.05;;;13.45;;
26574;SDS011;67165;50.256;10.978;2024-01-30T12:45:15;27.75;;;15.10;;
26574;SDS011;67165;50.256;10.978;2024-01-30T12:47:41;24.55;;;14.60;;
26574;SDS011;67165;50.256;10.978;2024-01-30T12:50:07;23.27;;;13.70;;
26574;SDS011;67165;50.256;10.978;2024-01-30T12:52:33;25.58;;;13.55;;
26574;SDS011;67165;50.256;10.978;2024-01-30T12:55:00;24.58;;;13.43;;
26574;SDS011;67165;50.256;10.978;2024-01-30T12:57:29;23.23;;;13.63;;
26574;SDS011;67165;50.256;10.978;2024-01-30T12:59:54;24.20;;;14.00;;
26574;SDS011;67165;50.256;10.978;2024-01-30T13:02:20;23.98;;;14.18;;
26574;SDS011;67165;50.256;10.978;2024-01-30T13:04:47;24.08;;;13.98;;
26574;SDS011;67165;50.256;10.978;2024-01-30T13:07:13;25.98;;;13.98;;
26574;SDS011;67165;50.256;10.978;2024-01-30T13:09:39;21.58;;;13.27;;
26574;SDS011;67165;50.256;10.978;2024-01-30T13:12:04;25.17;;;14.25;;
26574;SDS011;67165;50.256;10.978;2024-01-30T13:14:30;25.33;;;14.55;;
26574;SDS011;67165;50.256;10.978;2024-01-30T13:16:56;20.67;;;13.32;;
26574;SDS011;67165;50.256;10.978;2024-01-30T13:19:22;23.60;;;13.65;;
26574;SDS011;67165;50.256;10.978;2024-01-30T13:21:47;26.23;;;14.07;;
26574;SDS011;67165;50.256;10.978;2024-01-30T13:24:13;30.98;;;14.63;;
26574;SDS011;67165;50.256;10.978;2024-01-30T13:26:39;23.80;;;13.98;;
26574;SDS011;67165;50.256;10.978;2024-01-30T13:29:06;23.23;;;14.25;;
26574;SDS011;67165;50.256;10.978;2024-01-30T13:31:32;22.98;;;13.35;;
26574;SDS011;67165;50.256;10.978;2024-01-30T13:33:57;26.15;;;14.50;;
26574;SDS011;67165;50.256;10.978;2024-01-30T13:36:23;25.55;;;13.65;;
26574;SDS011;67165;50.256;10.978;2024-01-30T13:38:49;25.23;;;14.73;;
26574;SDS011;67165;50.256;10.978;2024-01-30T13:41:15;29.95;;;16.65;;
26574;SDS011;67165;50.256;10.978;2024-01-30T13:43:48;52.00;;;28.42;;
26574;SDS011;67165;50.256;10.978;2024-01-30T13:46:14;37.95;;;22.45;;
26574;SDS011;67165;50.256;10.978;2024-01-30T13:48:40;37.63;;;22.88;;
26574;SDS011;67165;50.256;10.978;2024-01-30T13:51:06;30.98;;;18.30;;
26574;SDS011;67165;50.256;10.978;2024-01-30T13:53:31;26.08;;;15.90;;
26574;SDS011;67165;50.256;10.978;2024-01-30T13:55:57;28.33;;;15.00;;
26574;SDS011;67165;50.256;10.978;2024-01-30T13:58:23;36.33;;;19.80;;
26574;SDS011;67165;50.256;10.978;2024-01-30T14:00:49;50.33;;;27.00;;
26574;SDS011;67165;50.256;10.978;2024-01-30T14:03:15;31.52;;;17.38;;
26574;SDS011;67165;50.256;10.978;2024-01-30T14:05:40;26.73;;;16.23;;
26574;SDS011;67165;50.256;10.978;2024-01-30T14:08:06;42.00;;;22.00;;
26574;SDS011;67165;50.256;10.978;2024-01-30T14:10:33;27.02;;;15.05;;